createdAt,value
2022-12-10T00:01:16.655Z,27.77
2022-12-10T00:03:44.490Z,26.37
2022-12-10T00:06:13.136Z,26.27
2022-12-10T00:08:40.200Z,26.47
2022-12-10T00:11:09.455Z,25.30
2022-12-10T00:13:36.930Z,26.37
2022-12-10T00:16:04.968Z,25.80
2022-12-10T00:18:31.982Z,26.00
2022-12-10T00:20:58.969Z,24.93
2022-12-10T00:23:26.125Z,26.73
2022-12-10T00:25:53.361Z,24.57
2022-12-10T00:28:20.726Z,24.43
2022-12-10T00:30:47.685Z,24.80
2022-12-10T00:33:14.642Z,25.47
2022-12-10T00:35:41.610Z,27.27
2022-12-10T00:38:08.697Z,24.93
2022-12-10T00:40:35.752Z,25.03
2022-12-10T00:43:02.737Z,24.63
2022-12-10T00:45:29.834Z,23.47
2022-12-10T00:47:56.873Z,24.00
2022-12-10T00:50:24.131Z,24.47
2022-12-10T00:52:51.120Z,24.40
2022-12-10T00:55:18.239Z,23.47
2022-12-10T00:57:45.297Z,24.40
2022-12-10T01:00:13.987Z,23.27
2022-12-10T01:02:41.022Z,24.80
2022-12-10T01:05:08.298Z,23.97
2022-12-10T01:07:35.257Z,25.43
2022-12-10T01:10:02.270Z,24.20
2022-12-10T01:12:29.405Z,23.43
2022-12-10T01:14:56.637Z,23.60
2022-12-10T01:17:23.619Z,24.73
2022-12-10T01:19:50.607Z,25.13
2022-12-10T01:22:18.576Z,24.43
2022-12-10T01:24:45.525Z,26.03
2022-12-10T01:27:12.914Z,24.47
2022-12-10T01:29:39.966Z,24.20
2022-12-10T01:32:07.137Z,25.50
2022-12-10T01:34:34.674Z,26.20
2022-12-10T01:37:02.669Z,25.33
2022-12-10T01:39:29.688Z,24.70
2022-12-10T01:41:58.058Z,26.23
2022-12-10T01:44:25.179Z,24.63
2022-12-10T01:46:56.353Z,25.07
2022-12-10T01:49:27.624Z,25.67
2022-12-10T01:51:55.999Z,30.83
2022-12-10T01:54:27.545Z,26.87
2022-12-10T01:57:07.542Z,25.03
2022-12-10T01:59:35.071Z,24.50
2022-12-10T02:02:21.131Z,24.60
2022-12-10T02:04:48.114Z,25.23
2022-12-10T02:07:18.533Z,25.27
2022-12-10T02:09:51.878Z,23.60
2022-12-10T02:12:22.255Z,24.27
2022-12-10T02:14:55.137Z,26.23
2022-12-10T02:17:27.664Z,25.53
2022-12-10T02:20:03.786Z,26.30
2022-12-10T02:22:33.462Z,25.40
2022-12-10T02:25:02.123Z,25.23
2022-12-10T02:27:32.181Z,25.43
2022-12-10T02:29:59.789Z,25.40
2022-12-10T02:32:28.914Z,24.97
2022-12-10T02:34:57.960Z,23.57
2022-12-10T02:37:27.993Z,24.80
2022-12-10T02:39:56.572Z,24.13
2022-12-10T02:42:25.057Z,25.07
2022-12-10T02:44:54.832Z,23.87
2022-12-10T02:47:22.023Z,22.93
2022-12-10T02:49:51.382Z,23.07
2022-12-10T02:52:20.110Z,24.63
2022-12-10T02:54:48.175Z,25.30
2022-12-10T02:57:33.681Z,25.97
2022-12-10T03:00:07.670Z,25.57
2022-12-10T03:02:40.937Z,24.97
2022-12-10T03:05:13.717Z,24.87
2022-12-10T03:07:57.174Z,26.37
2022-12-10T03:10:34.131Z,24.93
2022-12-10T03:13:02.508Z,25.53
2022-12-10T03:15:31.029Z,26.20
2022-12-10T03:17:59.138Z,25.17
2022-12-10T03:20:26.683Z,25.30
2022-12-10T03:22:54.321Z,25.03
2022-12-10T03:25:24.824Z,24.07
2022-12-10T03:27:53.346Z,25.83
2022-12-10T03:30:20.360Z,26.13
2022-12-10T03:32:47.824Z,24.20
2022-12-10T03:35:15.822Z,26.00
2022-12-10T03:37:42.967Z,25.90
2022-12-10T03:40:10.861Z,25.98
2022-12-10T03:42:38.631Z,26.00
2022-12-10T03:45:06.139Z,25.70
2022-12-10T03:47:33.431Z,25.60
2022-12-10T03:50:00.388Z,24.37
2022-12-10T03:52:27.349Z,24.80
2022-12-10T03:54:54.386Z,25.80
2022-12-10T03:57:21.348Z,25.27
2022-12-10T03:59:49.966Z,25.77
2022-12-10T04:02:16.971Z,24.10
2022-12-10T04:04:44.132Z,24.57
2022-12-10T04:07:11.301Z,24.33
2022-12-10T04:09:38.550Z,23.00
2022-12-10T04:12:05.981Z,24.20
2022-12-10T04:14:51.653Z,22.93
2022-12-10T04:17:19.034Z,23.30
2022-12-10T04:19:46.030Z,26.83
2022-12-10T04:22:32.783Z,31.15
2022-12-10T04:25:28.610Z,25.40
2022-12-10T04:27:58.117Z,24.33
2022-12-10T04:30:25.494Z,24.90
2022-12-10T04:32:52.458Z,24.77
2022-12-10T04:35:19.429Z,23.70
2022-12-10T04:37:46.441Z,23.60
2022-12-10T04:40:14.456Z,24.27
2022-12-10T04:42:42.000Z,25.50
2022-12-10T04:45:09.129Z,24.70
2022-12-10T04:47:36.242Z,23.13
2022-12-10T04:50:03.249Z,24.73
2022-12-10T04:52:30.211Z,25.10
2022-12-10T04:54:57.160Z,25.07
2022-12-10T04:57:24.125Z,25.70
2022-12-10T04:59:51.151Z,25.23
2022-12-10T05:02:18.124Z,24.97
2022-12-10T05:04:45.135Z,25.10
2022-12-10T05:07:12.171Z,25.70
2022-12-10T05:09:40.122Z,26.20
2022-12-10T05:12:07.250Z,26.67
2022-12-10T05:14:34.316Z,25.70
2022-12-10T05:17:01.291Z,25.50
2022-12-10T05:19:28.398Z,26.40
2022-12-10T05:22:14.016Z,25.53
2022-12-10T05:24:41.972Z,26.50
2022-12-10T05:27:08.993Z,25.80
2022-12-10T05:29:36.002Z,26.43
2022-12-10T05:32:04.004Z,25.43
2022-12-10T05:34:31.037Z,25.30
2022-12-10T05:36:58.036Z,34.17
2022-12-10T05:39:25.017Z,28.20
2022-12-10T05:41:52.244Z,27.00
2022-12-10T05:44:19.269Z,26.50
2022-12-10T05:46:46.358Z,26.00
2022-12-10T05:49:13.383Z,25.93
2022-12-10T05:51:40.569Z,26.37
2022-12-10T05:54:08.072Z,27.23
2022-12-10T05:56:36.118Z,25.77
2022-12-10T05:59:04.026Z,26.97
2022-12-10T06:01:32.602Z,25.73
2022-12-10T06:04:00.473Z,26.90
2022-12-10T06:06:29.017Z,27.93
2022-12-10T06:08:56.526Z,25.37
2022-12-10T06:11:24.061Z,33.25
2022-12-10T06:13:55.990Z,27.63
2022-12-10T06:16:25.140Z,26.83
2022-12-10T06:18:52.659Z,25.37
2022-12-10T06:21:20.406Z,27.27
2022-12-10T06:23:48.245Z,26.97
2022-12-10T06:26:17.502Z,26.93
2022-12-10T06:28:47.890Z,26.87
2022-12-10T06:31:15.222Z,25.53
2022-12-10T06:33:42.478Z,26.43
2022-12-10T06:36:11.449Z,26.73
2022-12-10T06:38:38.906Z,26.00
2022-12-10T06:41:06.661Z,27.63
2022-12-10T06:43:33.674Z,25.33
2022-12-10T06:46:00.690Z,25.77
2022-12-10T06:48:27.710Z,27.03
2022-12-10T06:50:54.734Z,32.53
2022-12-10T06:53:21.808Z,27.23
2022-12-10T06:55:48.830Z,27.07
2022-12-10T06:58:15.866Z,27.80
2022-12-10T07:00:43.663Z,26.33
2022-12-10T07:03:10.632Z,27.10
2022-12-10T07:05:37.612Z,26.47
2022-12-10T07:08:04.687Z,25.70
2022-12-10T07:10:31.826Z,24.10
2022-12-10T07:12:59.665Z,25.20
2022-12-10T07:15:28.234Z,25.40
2022-12-10T07:17:55.514Z,25.00
2022-12-10T07:20:22.846Z,24.70
2022-12-10T07:22:49.827Z,26.00
2022-12-10T07:25:16.920Z,27.20
2022-12-10T07:27:44.047Z,25.77
2022-12-10T07:30:11.800Z,24.43
2022-12-10T07:32:38.963Z,25.00
2022-12-10T07:35:06.317Z,24.73
2022-12-10T07:37:33.353Z,24.43
2022-12-10T07:40:00.342Z,25.53
2022-12-10T07:42:29.886Z,24.73
2022-12-10T07:44:56.917Z,24.67
2022-12-10T07:47:23.950Z,24.30
2022-12-10T07:49:52.069Z,24.17
2022-12-10T07:52:19.126Z,25.20
2022-12-10T07:54:46.364Z,26.03
2022-12-10T07:57:14.996Z,25.87
2022-12-10T07:59:42.653Z,26.37
2022-12-10T08:02:10.386Z,25.30
2022-12-10T08:04:38.902Z,25.00
2022-12-10T08:07:05.873Z,25.70
2022-12-10T08:09:33.072Z,24.27
2022-12-10T08:12:00.080Z,25.07
2022-12-10T08:14:27.122Z,25.07
2022-12-10T08:16:54.155Z,23.27
2022-12-10T08:19:24.721Z,25.57
2022-12-10T08:21:54.043Z,25.03
2022-12-10T08:24:21.023Z,23.73
2022-12-10T08:26:48.064Z,24.60
2022-12-10T08:29:15.033Z,24.00
2022-12-10T08:31:42.153Z,24.63
2022-12-10T08:34:13.775Z,26.10
2022-12-10T08:36:40.900Z,24.10
2022-12-10T08:39:08.111Z,25.10
2022-12-10T08:41:35.101Z,31.45
2022-12-10T08:44:02.129Z,27.17
2022-12-10T08:46:29.898Z,24.97
2022-12-10T08:48:57.176Z,25.00
2022-12-10T08:51:24.421Z,24.87
2022-12-10T08:53:51.803Z,24.97
2022-12-10T08:56:18.878Z,23.53
2022-12-10T08:58:45.858Z,24.93
2022-12-10T09:01:14.978Z,24.57
2022-12-10T09:03:42.084Z,25.47
2022-12-10T09:06:11.202Z,25.13
2022-12-10T09:08:39.081Z,25.07
2022-12-10T09:11:07.218Z,24.77
2022-12-10T09:13:34.253Z,23.23
2022-12-10T09:16:01.341Z,24.27
2022-12-10T09:18:28.409Z,24.43
2022-12-10T09:20:55.377Z,24.92
2022-12-10T09:23:22.349Z,23.70
2022-12-10T09:25:49.424Z,25.23
2022-12-10T09:28:16.414Z,24.00
2022-12-10T09:30:43.714Z,24.10
2022-12-10T09:33:10.934Z,23.97
2022-12-10T09:35:40.961Z,23.73
2022-12-10T09:38:09.022Z,21.97
2022-12-10T09:40:41.661Z,23.57
2022-12-10T09:43:12.184Z,21.80
2022-12-10T09:45:56.773Z,23.00
2022-12-10T09:48:47.878Z,22.63
2022-12-10T09:51:22.531Z,22.90
2022-12-10T09:53:51.062Z,22.60
2022-12-10T09:56:23.543Z,26.35
2022-12-10T09:58:50.885Z,22.77
2022-12-10T10:01:19.673Z,22.53
2022-12-10T10:03:48.839Z,22.13
2022-12-10T10:06:16.742Z,22.83
2022-12-10T10:08:55.100Z,21.20
2022-12-10T10:11:23.939Z,20.97
2022-12-10T10:13:53.433Z,21.63
2022-12-10T10:16:24.041Z,21.70
2022-12-10T10:19:02.644Z,21.43
2022-12-10T10:21:37.376Z,22.33
2022-12-10T10:24:11.382Z,22.20
2022-12-10T10:26:38.733Z,22.17
2022-12-10T10:29:11.230Z,23.03
2022-12-10T10:31:41.783Z,26.63
2022-12-10T10:34:22.680Z,22.13
2022-12-10T10:36:57.348Z,23.67
2022-12-10T10:39:36.641Z,22.07
2022-12-10T10:42:10.713Z,21.27
2022-12-10T10:44:39.082Z,20.53
2022-12-10T10:47:29.739Z,21.10
2022-12-10T10:50:01.047Z,20.80
2022-12-10T10:52:32.895Z,19.53
2022-12-10T10:54:59.970Z,22.33
2022-12-10T10:57:29.881Z,19.63
2022-12-10T10:59:58.055Z,20.27
2022-12-10T11:02:31.052Z,19.87
2022-12-10T11:05:01.124Z,22.47
2022-12-10T11:07:31.151Z,19.30
2022-12-10T11:09:58.269Z,19.30
2022-12-10T11:12:45.544Z,18.80
2022-12-10T11:15:30.775Z,17.83
2022-12-10T11:17:58.498Z,18.23
2022-12-10T11:20:25.437Z,17.90
2022-12-10T11:23:00.174Z,17.43
2022-12-10T11:25:50.532Z,17.23
2022-12-10T11:28:32.283Z,17.77
2022-12-10T11:31:19.560Z,18.20
2022-12-10T11:33:52.781Z,18.13
2022-12-10T11:36:19.789Z,19.40
2022-12-10T11:38:52.265Z,18.03
2022-12-10T11:41:38.012Z,17.47
2022-12-10T11:44:23.832Z,19.10
2022-12-10T11:47:08.174Z,18.57
2022-12-10T11:49:46.494Z,19.13
2022-12-10T11:52:18.374Z,19.07
2022-12-10T11:54:46.584Z,20.00
2022-12-10T11:57:16.661Z,19.77
2022-12-10T12:00:16.070Z,20.40
2022-12-10T12:03:02.209Z,18.60
2022-12-10T12:05:41.336Z,19.20
2022-12-10T12:08:13.218Z,18.80
2022-12-10T12:10:56.136Z,18.83
2022-12-10T12:13:23.482Z,18.20
2022-12-10T12:15:50.552Z,19.50
2022-12-10T12:18:28.018Z,19.00
2022-12-10T12:21:04.262Z,17.43
2022-12-10T12:23:35.070Z,18.97
2022-12-10T12:26:04.221Z,20.10
2022-12-10T12:28:57.441Z,19.67
2022-12-10T12:31:31.874Z,19.60
2022-12-10T12:34:12.777Z,24.65
2022-12-10T12:36:40.383Z,20.13
2022-12-10T12:39:07.674Z,20.03
2022-12-10T12:41:39.622Z,20.07
2022-12-10T12:44:14.565Z,22.60
2022-12-10T12:46:46.096Z,21.30
2022-12-10T12:49:30.035Z,20.10
2022-12-10T12:52:22.150Z,21.00
2022-12-10T12:54:50.193Z,21.60
2022-12-10T12:57:26.178Z,20.53
2022-12-10T13:00:08.372Z,19.87
2022-12-10T13:02:44.726Z,21.47
2022-12-10T13:05:31.999Z,20.00
2022-12-10T13:08:17.748Z,21.13
2022-12-10T13:10:46.059Z,20.83
2022-12-10T13:13:19.423Z,20.55
2022-12-10T13:15:46.477Z,20.50
2022-12-10T13:18:19.697Z,20.17
2022-12-10T13:20:48.807Z,20.63
2022-12-10T13:23:24.891Z,20.77
2022-12-10T13:25:55.875Z,21.60
2022-12-10T13:28:40.124Z,22.70
2022-12-10T13:31:07.141Z,19.97
2022-12-10T13:33:53.343Z,22.10
2022-12-10T13:36:26.291Z,21.07
2022-12-10T13:38:57.800Z,20.77
2022-12-10T13:41:43.405Z,22.27
2022-12-10T13:44:27.006Z,22.30
2022-12-10T13:46:55.694Z,21.50
2022-12-10T13:49:24.693Z,21.47
2022-12-10T13:51:57.386Z,20.90
2022-12-10T13:54:24.360Z,27.48
2022-12-10T13:56:54.391Z,23.03
2022-12-10T13:59:30.817Z,21.37
2022-12-10T14:02:09.851Z,20.73
2022-12-10T14:04:36.844Z,21.03
2022-12-10T14:07:03.866Z,21.20
2022-12-10T14:09:35.628Z,19.93
2022-12-10T14:12:05.146Z,21.50
2022-12-10T14:14:32.451Z,21.77
2022-12-10T14:17:07.641Z,20.93
2022-12-10T14:19:36.679Z,19.60
2022-12-10T14:22:07.899Z,20.03
2022-12-10T14:24:39.986Z,20.83
2022-12-10T14:27:21.417Z,21.47
2022-12-10T14:29:50.961Z,19.47
2022-12-10T14:32:22.360Z,20.07
2022-12-10T14:34:53.536Z,20.10
2022-12-10T14:37:22.150Z,20.83
2022-12-10T14:39:49.219Z,22.07
2022-12-10T14:42:17.696Z,20.97
2022-12-10T14:44:45.157Z,20.67
2022-12-10T14:47:15.168Z,20.47
2022-12-10T14:49:45.332Z,21.87
2022-12-10T14:52:16.734Z,21.47
2022-12-10T14:54:43.916Z,21.80
2022-12-10T14:57:15.929Z,22.87
2022-12-10T15:00:15.490Z,21.57
2022-12-10T15:02:44.427Z,24.55
2022-12-10T15:05:14.015Z,23.33
2022-12-10T15:07:41.603Z,20.20
2022-12-10T15:10:15.534Z,21.53
2022-12-10T15:12:45.523Z,24.75
2022-12-10T15:15:32.943Z,22.50
2022-12-10T15:18:09.786Z,21.83
2022-12-10T15:20:49.062Z,21.13
2022-12-10T15:23:16.032Z,20.37
2022-12-10T15:25:46.060Z,21.70
2022-12-10T15:28:24.419Z,20.77
2022-12-10T15:30:52.696Z,20.57
2022-12-10T15:33:24.655Z,20.67
2022-12-10T15:35:55.017Z,21.13
2022-12-10T15:38:22.123Z,20.10
2022-12-10T15:40:49.111Z,20.77
2022-12-10T15:43:30.905Z,20.33
2022-12-10T15:45:59.230Z,21.13
2022-12-10T15:48:27.609Z,20.93
2022-12-10T15:50:55.057Z,20.50
2022-12-10T15:53:35.240Z,27.73
2022-12-10T15:56:02.578Z,21.07
2022-12-10T15:58:29.722Z,21.63
2022-12-10T16:00:56.761Z,20.03
2022-12-10T16:03:25.004Z,20.77
2022-12-10T16:05:52.011Z,19.23
2022-12-10T16:08:26.416Z,21.13
2022-12-10T16:10:54.706Z,21.37
2022-12-10T16:13:26.524Z,21.00
2022-12-10T16:15:58.514Z,20.10
2022-12-10T16:18:28.269Z,21.47
2022-12-10T16:21:01.479Z,20.93
2022-12-10T16:23:28.478Z,20.60
2022-12-10T16:25:55.688Z,19.20
2022-12-10T16:28:23.514Z,21.37
2022-12-10T16:30:52.310Z,20.63
2022-12-10T16:33:20.181Z,25.70
2022-12-10T16:35:47.887Z,21.43
2022-12-10T16:38:15.182Z,21.73
2022-12-10T16:40:43.081Z,20.60
2022-12-10T16:43:17.033Z,20.27
2022-12-10T16:45:44.450Z,20.80
2022-12-10T16:48:12.431Z,20.70
2022-12-10T16:50:40.192Z,20.73
2022-12-10T16:53:16.677Z,20.77
2022-12-10T16:55:43.863Z,18.63
2022-12-10T16:58:12.005Z,20.10
2022-12-10T17:00:39.063Z,19.27
2022-12-10T17:03:22.913Z,19.60
2022-12-10T17:05:52.125Z,19.80
2022-12-10T17:08:20.171Z,25.70
2022-12-10T17:11:06.437Z,21.63
2022-12-10T17:13:34.255Z,21.13
2022-12-10T17:16:01.716Z,21.40
2022-12-10T17:18:28.820Z,21.67
2022-12-10T17:20:56.081Z,21.30
2022-12-10T17:23:24.060Z,20.27
2022-12-10T17:25:51.245Z,21.27
2022-12-10T17:28:20.142Z,20.30
2022-12-10T17:30:47.646Z,20.83
2022-12-10T17:33:15.524Z,22.07
2022-12-10T17:35:43.892Z,22.87
2022-12-10T17:38:18.630Z,22.60
2022-12-10T17:40:46.446Z,21.33
2022-12-10T17:43:13.798Z,20.97
2022-12-10T17:45:41.764Z,20.77
2022-12-10T17:48:11.176Z,21.27
2022-12-10T17:50:39.904Z,21.03
2022-12-10T17:53:14.919Z,20.83
2022-12-10T17:55:48.296Z,24.63
2022-12-10T17:58:16.702Z,21.17
2022-12-10T18:00:44.645Z,21.50
2022-12-10T18:03:12.061Z,21.13
2022-12-10T18:05:39.886Z,22.13
2022-12-10T18:08:06.990Z,20.43
2022-12-10T18:10:34.886Z,21.07
2022-12-10T18:13:02.240Z,21.67
2022-12-10T18:15:30.278Z,21.27
2022-12-10T18:17:57.819Z,22.37
2022-12-10T18:20:27.232Z,21.70
2022-12-10T18:22:54.697Z,21.87
2022-12-10T18:25:23.168Z,22.37
2022-12-10T18:27:53.514Z,25.10
2022-12-10T18:30:22.541Z,22.13
2022-12-10T18:32:50.579Z,30.63
2022-12-10T18:35:17.792Z,27.13
2022-12-10T18:37:45.101Z,30.37
2022-12-10T18:40:18.032Z,24.07
2022-12-10T18:42:47.323Z,23.40
2022-12-10T18:45:14.977Z,28.30
2022-12-10T18:47:42.012Z,27.83
2022-12-10T18:50:19.739Z,35.70
2022-12-10T18:52:47.941Z,25.00
2022-12-10T18:55:15.038Z,22.93
2022-12-10T18:57:45.977Z,46.00
2022-12-10T19:00:18.346Z,24.70
2022-12-10T19:02:45.921Z,22.13
2022-12-10T19:05:13.041Z,22.53
2022-12-10T19:07:40.121Z,25.00
2022-12-10T19:10:13.195Z,22.43
2022-12-10T19:12:40.258Z,24.73
2022-12-10T19:15:07.881Z,23.90
2022-12-10T19:17:35.821Z,23.27
2022-12-10T19:20:02.932Z,29.80
2022-12-10T19:22:29.966Z,25.33
2022-12-10T19:24:58.408Z,24.33
2022-12-10T19:27:25.556Z,24.23
2022-12-10T19:29:52.527Z,24.60
2022-12-10T19:32:19.691Z,23.00
2022-12-10T19:34:48.415Z,22.97
2022-12-10T19:37:15.369Z,24.40
2022-12-10T19:39:42.562Z,23.60
2022-12-10T19:42:09.966Z,21.80
2022-12-10T19:44:36.941Z,22.63
2022-12-10T19:47:03.949Z,22.10
2022-12-10T19:49:30.969Z,22.10
2022-12-10T19:51:57.954Z,22.17
2022-12-10T19:54:24.954Z,22.83
2022-12-10T19:56:52.317Z,22.13
2022-12-10T19:59:20.081Z,22.50
2022-12-10T20:01:47.677Z,27.70
2022-12-10T20:04:15.297Z,26.33
2022-12-10T20:06:43.642Z,23.47
2022-12-10T20:09:21.331Z,25.23
2022-12-10T20:11:48.643Z,24.67
2022-12-10T20:14:15.939Z,23.43
2022-12-10T20:16:43.421Z,24.07
2022-12-10T20:19:14.704Z,22.70
2022-12-10T20:21:42.172Z,22.13
2022-12-10T20:24:09.423Z,21.37
2022-12-10T20:26:37.739Z,23.10
2022-12-10T20:29:06.893Z,21.90
2022-12-10T20:31:33.968Z,28.38
2022-12-10T20:34:01.711Z,22.93
2022-12-10T20:36:28.921Z,26.53
2022-12-10T20:38:55.998Z,24.17
2022-12-10T20:41:23.244Z,22.77
2022-12-10T20:43:51.279Z,28.00
2022-12-10T20:46:20.069Z,25.23
2022-12-10T20:48:47.719Z,22.53
2022-12-10T20:51:14.851Z,23.43
2022-12-10T20:53:42.698Z,22.97
2022-12-10T20:56:17.371Z,23.53
2022-12-10T20:58:44.470Z,23.60
2022-12-10T21:01:11.969Z,21.87
2022-12-10T21:03:40.220Z,22.77
2022-12-10T21:06:08.067Z,23.37
2022-12-10T21:08:35.220Z,22.83
2022-12-10T21:11:02.422Z,23.63
2022-12-10T21:13:30.253Z,24.40
2022-12-10T21:15:58.948Z,22.97
2022-12-10T21:18:26.334Z,25.67
2022-12-10T21:20:54.683Z,24.43
2022-12-10T21:23:24.706Z,24.27
2022-12-10T21:25:52.542Z,32.85
2022-12-10T21:28:20.121Z,26.00
2022-12-10T21:30:48.507Z,26.13
2022-12-10T21:33:16.399Z,24.90
2022-12-10T21:35:44.285Z,24.97
2022-12-10T21:38:11.624Z,24.47
2022-12-10T21:40:40.137Z,25.97
2022-12-10T21:43:16.847Z,24.73
2022-12-10T21:45:50.517Z,24.30
2022-12-10T21:48:19.288Z,23.70
2022-12-10T21:50:48.007Z,24.17
2022-12-10T21:53:15.820Z,21.80
2022-12-10T21:55:46.592Z,22.53
2022-12-10T21:58:13.874Z,22.03
2022-12-10T22:00:41.107Z,20.23
2022-12-10T22:03:08.244Z,19.60
2022-12-10T22:05:35.330Z,20.02
2022-12-10T22:08:02.397Z,20.13
2022-12-10T22:10:30.622Z,20.57
2022-12-10T22:12:57.941Z,20.13
2022-12-10T22:15:25.044Z,19.07
2022-12-10T22:17:53.111Z,18.60
2022-12-10T22:20:20.298Z,19.30
2022-12-10T22:22:47.520Z,20.53
2022-12-10T22:25:14.786Z,19.23
2022-12-10T22:27:42.119Z,21.30
2022-12-10T22:30:10.374Z,19.40
2022-12-10T22:32:37.537Z,21.23
2022-12-10T22:35:04.910Z,19.93
2022-12-10T22:37:31.918Z,20.43
2022-12-10T22:40:05.637Z,19.70
2022-12-10T22:42:38.141Z,20.43
2022-12-10T22:45:06.358Z,19.47
2022-12-10T22:47:33.571Z,25.13
2022-12-10T22:50:00.617Z,20.57
2022-12-10T22:52:29.119Z,18.57
2022-12-10T22:54:56.136Z,18.93
2022-12-10T22:57:23.684Z,19.40
2022-12-10T22:59:50.799Z,18.93
2022-12-10T23:02:17.917Z,20.17
2022-12-10T23:04:45.185Z,19.27
2022-12-10T23:07:12.205Z,20.10
2022-12-10T23:09:40.741Z,21.73
2022-12-10T23:12:26.349Z,21.07
2022-12-10T23:14:53.585Z,20.70
2022-12-10T23:17:21.879Z,21.80
2022-12-10T23:19:48.914Z,21.20
2022-12-10T23:22:15.920Z,21.20
2022-12-10T23:24:43.179Z,22.37
2022-12-10T23:27:11.541Z,29.58
2022-12-10T23:29:38.642Z,24.03
2022-12-10T23:32:06.154Z,23.23
2022-12-10T23:34:35.949Z,20.77
2022-12-10T23:37:03.048Z,21.70
2022-12-10T23:39:30.498Z,22.50
2022-12-10T23:41:57.501Z,22.07
2022-12-10T23:44:24.575Z,22.70
2022-12-10T23:46:51.571Z,22.60
2022-12-10T23:49:19.005Z,20.50
2022-12-10T23:51:46.153Z,22.17
2022-12-10T23:54:13.196Z,23.10
2022-12-10T23:56:40.634Z,23.73
2022-12-10T23:59:07.657Z,22.63
